Time;durP1;ratioP1;P1;durP2;ratioP2;P2;SDS_P1;SDS_P2;PMS_P1;PMS_P2;Temp;Humidity;BMP_temperature;BMP_pressure;BME280_temperature;BME280_humidity;BME280_pressure;Samples;Min_cycle;Max_cycle;Signal;HPM_P1;HPM_P2
2022/02/05 00:02:30;;;;;;;21.30;9.73;;;;;;;-6.42;75.57;95540.47;1768442;81;21022;-71
2022/02/05 00:04:53;;;;;;;5.63;2.77;;;;;;;-6.33;76.24;95534.44;1767727;81;21010;-71
2022/02/05 00:07:21;;;;;;;7.00;3.87;;;;;;;-6.24;76.07;95543.38;1768341;81;20958;-71
2022/02/05 00:10:26;;;;;;;12.10;4.80;;;;;;;-6.20;75.88;95544.88;1768277;81;21002;-71
2022/02/05 00:39:24;;;;;;;5.87;2.43;;;;;;;-5.81;75.08;95545.21;1750974;82;21007;-73
2022/02/05 00:41:48;;;;;;;3.93;2.30;;;;;;;-5.82;74.42;95537.02;1746885;82;21003;-73
2022/02/05 00:44:03;;;;;;;12.27;5.63;;;;;;;-5.87;74.12;95536.43;1747039;82;21050;-73
2022/02/05 00:46:35;;;;;;;12.80;5.50;;;;;;;-5.97;74.66;95535.60;1751042;82;21027;-73
2022/02/05 00:48:59;;;;;;;9.13;4.90;;;;;;;-5.88;75.14;95526.08;1751090;82;21027;-73
2022/02/05 00:51:35;;;;;;;13.10;6.40;;;;;;;-5.82;75.03;95525.07;1750844;82;21035;-73
2022/02/05 00:54:10;;;;;;;16.70;8.60;;;;;;;-5.79;75.23;95518.77;1750160;82;21489;-72
2022/02/05 00:59:12;;;;;;;6.63;2.53;;;;;;;-5.83;74.24;95522.42;1750943;82;21600;-73
2022/02/05 01:01:40;;;;;;;7.57;3.73;;;;;;;-5.78;75.41;95510.64;1751051;82;21078;-72
2022/02/05 01:04:07;;;;;;;10.23;4.17;;;;;;;-5.68;75.29;95508.52;1750868;81;21515;-73
2022/02/05 01:06:34;;;;;;;11.67;5.50;;;;;;;-5.63;75.15;95511.28;1751157;81;21022;-73
2022/02/05 01:09:06;;;;;;;23.77;12.50;;;;;;;-5.51;75.25;95513.49;1750877;81;20999;-73
2022/02/05 01:11:33;;;;;;;25.30;13.00;;;;;;;-5.45;74.79;95512.44;1750979;81;20994;-73
2022/02/05 01:14:02;;;;;;;33.33;16.50;;;;;;;-5.49;74.06;95507.59;1750928;81;21495;-73
2022/02/05 01:19:00;;;;;;;30.43;14.83;;;;;;;-5.47;74.17;95504.69;1751145;81;20967;-74
2022/02/05 01:21:47;;;;;;;25.83;13.17;;;;;;;-5.45;73.86;95496.60;1755214;81;21042;-74
2022/02/05 01:24:08;;;;;;;25.93;12.73;;;;;;;-5.55;74.53;95497.46;1757631;81;21045;-73
2022/02/05 01:29:05;;;;;;;11.17;4.90;;;;;;;-5.44;74.69;95502.23;1760442;81;21018;-73
2022/02/05 01:31:36;;;;;;;14.40;7.23;;;;;;;-5.42;74.21;95500.12;1759789;81;21022;-73
2022/02/05 01:34:14;;;;;;;35.73;16.07;;;;;;;-5.38;75.17;95502.02;1759307;81;21034;-73
2022/02/05 01:50:32;;;;;;;14.13;7.57;;;;;;;-5.37;75.03;95508.48;1760556;81;21018;-72
2022/02/05 01:53:07;;;;;;;10.90;5.37;;;;;;;-5.27;75.12;95509.73;1757784;81;21559;-72
2022/02/05 01:58:09;;;;;;;4.43;2.73;;;;;;;-4.90;75.43;95490.61;1706603;81;21502;-72
2022/02/05 02:06:06;;;;;;;33.97;19.27;;;;;;;-4.62;76.02;95486.97;1760529;81;21007;-72
2022/02/05 02:11:30;;;;;;;33.20;18.43;;;;;;;-4.53;75.79;95485.16;1760516;81;21078;-73
2022/02/05 02:16:34;;;;;;;32.77;18.07;;;;;;;-4.30;74.60;95474.83;1760321;81;21121;-73
2022/02/05 02:19:05;;;;;;;26.53;13.97;;;;;;;-4.18;74.80;95476.55;1757884;81;21106;-72
2022/02/05 02:21:30;;;;;;;26.87;13.77;;;;;;;-4.09;74.34;95470.84;1760096;81;21050;-72
2022/02/05 02:29:03;;;;;;;29.57;15.63;;;;;;;-3.96;73.50;95460.12;1769169;81;21041;-72
2022/02/05 02:31:28;;;;;;;22.97;13.90;;;;;;;-3.99;73.94;95460.89;1767979;81;21090;-72
2022/02/05 02:33:56;;;;;;;33.67;18.03;;;;;;;-3.89;74.05;95458.22;1768822;81;21070;-73
2022/02/05 02:36:32;;;;;;;44.37;21.80;;;;;;;-3.78;73.86;95463.73;1768809;81;21512;-73
2022/02/05 02:38:56;;;;;;;34.63;17.37;;;;;;;-3.63;73.72;95453.93;1767514;81;21508;-73
2022/02/05 02:41:28;;;;;;;33.53;16.93;;;;;;;-3.58;73.38;95452.41;1768867;81;21531;-73
2022/02/05 02:43:52;;;;;;;45.37;21.83;;;;;;;-3.65;72.77;95456.90;1768693;81;20986;-73
2022/02/05 02:46:19;;;;;;;45.03;24.40;;;;;;;-3.70;73.01;95448.14;1769267;81;21531;-73
2022/02/05 02:48:47;;;;;;;36.60;18.63;;;;;;;-3.59;73.86;95455.80;1769255;81;21005;-73
2022/02/05 03:00:00;;;;;;;38.13;20.67;;;;;;;-3.37;73.35;95443.20;1769418;81;21066;-73
2022/02/05 03:01:46;;;;;;;35.10;18.83;;;;;;;-3.27;73.04;95436.20;1752642;81;21030;-73
2022/02/05 03:04:12;;;;;;;37.30;17.97;;;;;;;-3.22;73.36;95451.84;1769205;81;20990;-73
2022/02/05 03:06:39;;;;;;;42.03;22.87;;;;;;;-3.21;73.48;95447.55;1769368;81;21068;-73
2022/02/05 03:09:05;;;;;;;46.63;24.20;;;;;;;-3.17;73.98;95445.12;1769096;81;21437;-73
2022/02/05 03:11:32;;;;;;;44.70;22.90;;;;;;;-3.02;73.84;95447.30;1769085;81;21002;-73
2022/02/05 03:13:58;;;;;;;46.07;22.23;;;;;;;-3.06;73.39;95437.70;1769338;81;21081;-73
2022/02/05 03:16:28;;;;;;;47.93;24.20;;;;;;;-3.09;73.59;95451.39;1769318;81;21081;-73
2022/02/05 03:21:22;;;;;;;43.00;22.03;;;;;;;-3.20;74.15;95447.61;1766469;81;21521;-73
2022/02/05 03:23:49;;;;;;;40.30;22.43;;;;;;;-3.16;74.07;95448.56;1750932;81;21042;-73
2022/02/05 03:26:15;;;;;;;44.07;24.90;;;;;;;-3.04;73.87;95443.79;1751027;82;20975;-73
2022/02/05 03:28:42;;;;;;;45.37;24.20;;;;;;;-3.08;73.55;95444.09;1750989;82;21015;-73
2022/02/05 03:31:09;;;;;;;50.17;26.17;;;;;;;-3.12;73.24;95441.39;1751050;81;21023;-74
2022/02/05 03:33:35;;;;;;;51.97;27.03;;;;;;;-3.23;74.20;95435.87;1750922;81;21465;-73
2022/02/05 03:36:03;;;;;;;56.33;29.13;;;;;;;-3.20;73.93;95440.25;1751088;81;21054;-73
2022/02/05 03:38:29;;;;;;;50.20;27.53;;;;;;;-3.20;74.65;95434.70;1750904;81;20967;-73
2022/02/05 03:40:56;;;;;;;53.50;28.07;;;;;;;-3.15;74.25;95434.83;1751119;81;20998;-73
2022/02/05 03:43:22;;;;;;;55.20;27.80;;;;;;;-3.16;74.79;95431.80;1751004;82;21002;-73
2022/02/05 03:45:50;;;;;;;67.03;33.17;;;;;;;-2.94;75.17;95440.66;1750519;82;21023;-73
2022/02/05 03:48:17;;;;;;;55.60;27.70;;;;;;;-2.88;74.51;95430.92;1751052;82;21008;-73
2022/02/05 03:50:43;;;;;;;54.67;27.83;;;;;;;-2.75;74.18;95440.78;1750962;82;21123;-73
2022/02/05 03:53:10;;;;;;;49.60;27.13;;;;;;;-2.72;74.19;95434.44;1750869;81;20991;-73
2022/02/05 03:55:37;;;;;;;43.07;24.23;;;;;;;-2.61;74.19;95438.20;1750877;81;21011;-73
2022/02/05 03:58:05;;;;;;;48.80;26.30;;;;;;;-2.60;73.71;95442.94;1751054;81;21059;-73
2022/02/05 04:00:31;;;;;;;52.57;25.93;;;;;;;-2.59;73.91;95443.42;1750981;81;21022;-73
2022/02/05 04:02:59;;;;;;;45.57;23.70;;;;;;;-2.62;73.54;95453.25;1750976;81;21016;-73
2022/02/05 04:05:26;;;;;;;38.10;20.43;;;;;;;-2.63;73.55;95450.61;1750970;82;21011;-73
2022/02/05 04:07:54;;;;;;;30.60;17.13;;;;;;;-2.59;73.60;95456.76;1750908;81;21500;-73
2022/02/05 04:10:27;;;;;;;31.63;17.33;;;;;;;-2.62;73.70;95448.50;1750709;82;20964;-73
2022/02/05 04:18:21;;;;;;;25.50;14.83;;;;;;;-2.63;72.89;95445.44;1751079;81;21053;-73
2022/02/05 04:20:49;;;;;;;33.40;16.73;;;;;;;-2.69;72.86;95445.27;1750764;81;21050;-73
2022/02/05 04:23:16;;;;;;;29.30;16.03;;;;;;;-2.63;73.37;95450.61;1758373;81;21038;-73
2022/02/05 04:25:43;;;;;;;36.37;18.93;;;;;;;-2.62;72.91;95450.66;1760218;81;21014;-73
2022/02/05 04:28:10;;;;;;;31.00;17.10;;;;;;;-2.57;72.96;95453.78;1760211;81;21007;-73
2022/02/05 04:30:36;;;;;;;32.03;17.40;;;;;;;-2.49;72.86;95441.56;1760378;81;21511;-73
2022/02/05 04:33:03;;;;;;;36.00;18.37;;;;;;;-2.43;72.66;95443.02;1760300;81;20994;-73
2022/02/05 04:35:29;;;;;;;32.30;17.73;;;;;;;-2.43;72.86;95443.02;1760217;81;21484;-73
2022/02/05 04:37:58;;;;;;;30.13;16.30;;;;;;;-2.44;73.26;95455.91;1760300;81;21081;-73
2022/02/05 04:40:30;;;;;;;28.53;15.50;;;;;;;-2.41;72.92;95452.98;1760146;81;21030;-73
2022/02/05 05:06:32;;;;;;;52.23;28.20;;;;;;;-1.94;72.42;95449.08;1760647;81;21038;-73
2022/02/05 05:08:53;;;;;;;48.47;27.17;;;;;;;-1.91;73.01;95450.48;1757179;81;21030;-73
2022/02/05 05:11:41;;;;;;;30.63;16.50;;;;;;;-1.82;72.91;95446.82;1759370;81;21014;-73
2022/02/05 05:21:41;;;;;;;131.70;64.23;;;;;;;-2.11;73.83;95439.59;1760387;81;21015;-74
2022/02/05 05:24:08;;;;;;;169.23;75.33;;;;;;;-2.07;74.04;95434.95;1760289;81;21023;-73
2022/02/05 05:26:34;;;;;;;174.27;81.43;;;;;;;-2.06;73.40;95431.12;1760552;81;21072;-73
2022/02/05 05:29:01;;;;;;;139.37;65.93;;;;;;;-2.03;73.72;95438.09;1760507;81;20974;-73
2022/02/05 05:31:27;;;;;;;118.60;59.30;;;;;;;-1.96;73.45;95441.30;1760210;81;20994;-73
2022/02/05 05:33:54;;;;;;;103.17;51.60;;;;;;;-1.91;73.70;95437.55;1760519;81;21500;-73
2022/02/05 05:36:20;;;;;;;108.43;53.23;;;;;;;-1.85;73.57;95441.15;1760433;81;21065;-73
2022/02/05 05:38:47;;;;;;;143.10;60.67;;;;;;;-1.84;73.75;95440.34;1760358;81;21504;-73
2022/02/05 05:41:13;;;;;;;157.47;67.70;;;;;;;-1.71;73.57;95434.16;1760329;81;21066;-73
2022/02/05 05:44:48;;;;;;;106.47;50.73;;;;;;;-1.60;73.38;95440.50;1736630;81;21537;-73
2022/02/05 05:49:44;;;;;;;212.03;98.00;;;;;;;-1.70;73.63;95442.39;1760408;81;21477;-73
2022/02/05 05:51:09;;;;;;;158.03;75.50;;;;;;;-1.78;73.67;95450.83;1745190;81;21006;-73
2022/02/05 05:53:35;;;;;;;233.70;112.50;;;;;;;-1.80;73.95;95450.33;1760232;81;21551;-73
2022/02/05 05:56:03;;;;;;;259.23;120.63;;;;;;;-1.79;74.30;95449.09;1760346;81;21022;-73
2022/02/05 05:58:30;;;;;;;208.47;99.37;;;;;;;-1.73;73.91;95459.14;1760373;81;21015;-74
2022/02/05 06:00:57;;;;;;;187.40;89.53;;;;;;;-1.66;74.21;95457.14;1760487;81;21508;-73
2022/02/05 06:03:23;;;;;;;104.47;54.53;;;;;;;-1.55;73.90;95468.66;1760495;81;21507;-73
2022/02/05 06:05:50;;;;;;;147.50;73.67;;;;;;;-1.44;73.81;95463.32;1760405;81;21021;-73
2022/02/05 06:08:18;;;;;;;182.33;89.53;;;;;;;-1.45;74.05;95467.19;1760393;81;21030;-73
2022/02/05 06:10:45;;;;;;;180.67;88.90;;;;;;;-1.49;74.13;95463.63;1760272;81;20985;-73
2022/02/05 06:13:13;;;;;;;174.07;86.07;;;;;;;-1.45;73.82;95465.47;1760222;81;21015;-73
2022/02/05 06:15:41;;;;;;;204.57;99.77;;;;;;;-1.39;74.02;95466.89;1760481;81;21050;-73
2022/02/05 06:18:09;;;;;;;196.20;87.63;;;;;;;-1.42;73.47;95462.95;1760352;81;21548;-73
2022/02/05 06:20:37;;;;;;;255.13;125.33;;;;;;;-1.38;73.42;95463.49;1760211;81;21030;-73
2022/02/05 06:23:04;;;;;;;234.67;116.40;;;;;;;-1.40;74.17;95456.10;1738803;81;21037;-73
2022/02/05 06:25:32;;;;;;;228.20;107.57;;;;;;;-1.37;74.03;95464.36;1770813;81;21089;-73
2022/02/05 06:28:00;;;;;;;203.03;99.97;;;;;;;-1.31;74.11;95464.53;1770950;81;21033;-73
2022/02/05 06:30:27;;;;;;;177.47;85.50;;;;;;;-1.30;74.14;95467.56;1771028;81;21492;-73
2022/02/05 06:32:53;;;;;;;204.33;93.50;;;;;;;-1.26;73.74;95468.50;1770926;81;21025;-73
2022/02/05 06:35:21;;;;;;;194.27;95.40;;;;;;;-1.31;73.29;95468.41;1770748;81;21042;-73
2022/02/05 06:37:48;;;;;;;440.93;247.97;;;;;;;-1.26;73.74;95473.67;1770974;81;21017;-73
2022/02/05 06:40:15;;;;;;;280.87;138.93;;;;;;;-1.26;73.42;95469.80;1770805;81;21022;-73
2022/02/05 06:42:46;;;;;;;198.53;103.73;;;;;;;-1.29;73.57;95474.48;1770794;81;21026;-73
2022/02/05 06:45:15;;;;;;;130.90;70.27;;;;;;;-1.28;73.43;95474.95;1771156;81;21065;-73
2022/02/05 06:47:42;;;;;;;129.57;69.60;;;;;;;-1.32;73.54;95481.75;1770912;81;21022;-73
2022/02/05 06:50:09;;;;;;;150.20;77.83;;;;;;;-1.26;73.88;95481.05;1771042;81;20998;-73
2022/02/05 06:52:36;;;;;;;130.27;67.30;;;;;;;-1.13;73.88;95493.45;1770910;81;21507;-73
2022/02/05 06:55:04;;;;;;;130.80;68.83;;;;;;;-1.02;73.82;95491.53;1770832;81;21021;-73
2022/02/05 06:57:30;;;;;;;115.13;61.47;;;;;;;-0.94;73.97;95494.75;1771002;81;21057;-73
2022/02/05 06:59:56;;;;;;;108.07;57.50;;;;;;;-0.86;73.55;95493.63;1770945;81;20958;-73
2022/02/05 07:02:23;;;;;;;103.37;55.77;;;;;;;-0.77;73.37;95490.41;1770792;81;21584;-73
2022/02/05 07:04:49;;;;;;;107.23;59.43;;;;;;;-0.73;73.26;95479.25;1771035;81;21538;-73
2022/02/05 07:07:16;;;;;;;98.40;54.13;;;;;;;-0.80;72.98;95474.80;1771077;81;21057;-73
2022/02/05 07:09:43;;;;;;;106.47;58.80;;;;;;;-0.79;73.07;95486.89;1770774;81;21041;-78
2022/02/05 07:12:11;;;;;;;101.60;55.83;;;;;;;-0.75;73.46;95481.83;1770596;81;21021;-73
2022/02/05 07:14:55;;;;;;;114.97;60.67;;;;;;;-0.62;73.47;95466.13;1771063;81;21060;-73
2022/02/05 07:17:18;;;;;;;113.27;61.67;;;;;;;-0.58;73.06;95478.33;1767850;81;21141;-73
2022/02/05 07:22:09;;;;;;;85.17;48.63;;;;;;;-0.50;72.81;95479.79;1705269;81;21101;-73
2022/02/05 07:24:53;;;;;;;59.73;33.83;;;;;;;-0.43;72.86;95479.05;1770856;81;21018;-73
2022/02/05 07:29:49;;;;;;;62.53;34.60;;;;;;;-0.36;72.04;95482.66;1770944;81;21499;-73
2022/02/05 07:32:16;;;;;;;62.87;34.93;;;;;;;-0.46;71.90;95486.34;1770615;81;21082;-73
2022/02/05 07:34:43;;;;;;;48.60;27.47;;;;;;;-0.41;72.34;95489.47;1770939;81;21078;-73
2022/02/05 07:37:10;;;;;;;31.40;18.63;;;;;;;-0.37;72.16;95487.41;1770719;81;21014;-73
2022/02/05 07:39:44;;;;;;;34.47;18.83;;;;;;;-0.40;71.85;95484.33;1770958;81;21516;-73
2022/02/05 07:42:08;;;;;;;27.93;17.10;;;;;;;-0.39;71.89;95485.20;1769832;81;21426;-73
2022/02/05 07:44:35;;;;;;;33.10;19.67;;;;;;;-0.37;71.78;95491.30;1770747;81;20990;-73
2022/02/05 07:47:02;;;;;;;30.67;18.63;;;;;;;-0.33;71.75;95490.11;1770963;81;21504;-73
2022/02/05 07:49:36;;;;;;;25.63;15.03;;;;;;;-0.29;71.74;95494.49;1770901;81;21480;-73
2022/02/05 07:51:57;;;;;;;23.10;14.33;;;;;;;-0.29;71.49;95493.62;1769533;81;21046;-73
2022/02/05 07:54:24;;;;;;;31.13;19.73;;;;;;;-0.21;71.81;95494.66;1770806;81;21508;-73
2022/02/05 07:56:51;;;;;;;24.37;15.17;;;;;;;-0.12;71.72;95490.09;1770839;81;21098;-73
2022/02/05 07:59:19;;;;;;;23.97;14.80;;;;;;;-0.08;71.52;95482.81;1770698;81;21058;-73
2022/02/05 08:01:46;;;;;;;37.27;24.60;;;;;;;0.04;71.46;95494.73;1770864;81;21482;-73
2022/02/05 08:04:13;;;;;;;32.93;21.40;;;;;;;0.10;71.36;95481.01;1770920;81;21065;-74
2022/02/05 08:06:40;;;;;;;23.60;13.97;;;;;;;0.19;70.95;95482.06;1770759;81;21045;-73
2022/02/05 08:09:21;;;;;;;26.60;15.77;;;;;;;0.28;70.41;95485.28;1770872;81;21053;-73
2022/02/05 08:12:10;;;;;;;22.17;13.40;;;;;;;0.30;70.75;95487.45;1770196;81;21034;-75
2022/02/05 08:14:15;;;;;;;20.80;14.00;;;;;;;0.43;69.81;95471.72;1758943;81;21005;-73
2022/02/05 08:19:11;;;;;;;27.00;17.93;;;;;;;0.75;70.35;95443.69;1770717;81;21488;-73
2022/02/05 08:21:37;;;;;;;25.27;15.90;;;;;;;0.89;70.24;95435.27;1771052;81;21500;-73
2022/02/05 08:24:05;;;;;;;21.20;14.60;;;;;;;1.15;69.64;95430.47;1763922;81;21081;-73
2022/02/05 08:26:32;;;;;;;24.53;15.93;;;;;;;1.45;69.59;95435.23;1760070;81;21035;-73
2022/02/05 08:29:02;;;;;;;24.17;14.77;;;;;;;1.77;69.66;95434.36;1760429;81;21038;-73
2022/02/05 08:31:29;;;;;;;29.57;19.37;;;;;;;2.07;68.86;95444.27;1760345;81;20994;-74
2022/02/05 08:33:56;;;;;;;34.67;20.90;;;;;;;2.36;66.63;95430.69;1760194;81;21039;-74
2022/02/05 08:36:25;;;;;;;37.70;23.77;;;;;;;2.69;67.59;95433.17;1760642;81;21059;-74
2022/02/05 08:38:54;;;;;;;26.77;15.60;;;;;;;3.22;68.19;95436.64;1760622;81;20994;-74
2022/02/05 08:41:21;;;;;;;19.40;12.03;;;;;;;3.79;67.05;95430.05;1760427;81;21087;-74
2022/02/05 08:43:47;;;;;;;9.77;6.37;;;;;;;4.26;66.58;95429.81;1760592;81;21515;-74
2022/02/05 08:46:14;;;;;;;25.30;14.40;;;;;;;4.84;66.20;95426.00;1760624;81;21094;-74
2022/02/05 08:48:40;;;;;;;28.60;17.47;;;;;;;5.14;64.64;95429.47;1760503;81;21014;-75
2022/02/05 08:51:07;;;;;;;25.10;15.00;;;;;;;5.42;63.09;95433.83;1760645;81;21122;-75
2022/02/05 08:53:35;;;;;;;25.47;16.57;;;;;;;5.69;64.06;95430.70;1760697;81;20998;-75
2022/02/05 08:56:02;;;;;;;18.10;10.63;;;;;;;5.67;62.70;95439.02;1760212;81;20991;-72
2022/02/05 08:58:29;;;;;;;11.03;6.63;;;;;;;5.63;62.70;95434.22;1760701;81;21046;-72
2022/02/05 09:01:09;;;;;;;9.37;6.27;;;;;;;5.54;62.94;95444.69;1760570;81;21026;-73
2022/02/05 09:03:32;;;;;;;10.13;4.03;;;;;;;5.79;62.61;95444.20;1758566;81;21006;-72
2022/02/05 09:05:55;;;;;;;8.47;6.63;;;;;;;6.20;61.82;95447.59;1759516;81;21552;-72
2022/02/05 09:08:31;;;;;;;9.80;5.50;;;;;;;6.45;62.28;95448.36;1760484;81;20994;-72
2022/02/05 09:16:07;;;;;;;11.90;6.10;;;;;;;5.98;61.88;95472.57;1760233;81;21117;-72
2022/02/05 09:18:35;;;;;;;10.77;6.37;;;;;;;6.03;62.04;95466.87;1760659;81;21002;-72
2022/02/05 09:21:02;;;;;;;13.50;7.23;;;;;;;6.27;61.79;95475.11;1760601;81;20963;-72
2022/02/05 09:23:29;;;;;;;13.30;7.63;;;;;;;6.49;61.50;95468.00;1760468;81;21507;-73
2022/02/05 09:25:58;;;;;;;13.53;7.57;;;;;;;6.63;60.92;95467.08;1760077;81;21027;-73
2022/02/05 09:28:25;;;;;;;11.87;8.00;;;;;;;6.91;61.18;95467.78;1760529;81;21584;-73
2022/02/05 09:33:36;;;;;;;14.10;9.07;;;;;;;7.00;58.71;95467.70;1760567;81;20995;-72
2022/02/05 09:36:05;;;;;;;12.50;8.67;;;;;;;6.93;58.97;95462.95;1759822;81;21030;-73
2022/02/05 09:38:33;;;;;;;10.77;6.97;;;;;;;7.10;59.70;95458.88;1760772;81;21002;-73
2022/02/05 09:41:00;;;;;;;11.83;8.13;;;;;;;7.30;59.31;95452.62;1760447;81;21110;-73
2022/02/05 09:43:30;;;;;;;10.13;7.57;;;;;;;7.53;58.76;95455.94;1760699;81;21021;-73
2022/02/05 09:45:57;;;;;;;13.47;8.97;;;;;;;7.78;58.84;95447.80;1760470;81;21050;-73
2022/02/05 09:48:28;;;;;;;10.70;6.47;;;;;;;7.87;57.13;95433.27;1760399;81;20999;-73
2022/02/05 09:50:57;;;;;;;11.30;8.30;;;;;;;7.64;55.86;95430.02;1760399;81;21015;-73
2022/02/05 09:53:23;;;;;;;10.13;6.90;;;;;;;7.20;57.00;95437.38;1760468;81;21058;-73
2022/02/05 09:55:51;;;;;;;10.97;7.40;;;;;;;6.97;57.80;95428.83;1760525;81;21062;-73
2022/02/05 09:58:18;;;;;;;9.90;6.20;;;;;;;7.04;57.71;95422.66;1760375;81;21497;-73
2022/02/05 10:01:14;;;;;;;10.63;7.57;;;;;;;7.20;56.97;95432.58;1760258;81;21098;-73
2022/02/05 10:03:41;;;;;;;8.78;5.72;;;;;;;7.31;56.43;95425.06;1760205;81;21034;-73
2022/02/05 10:06:19;;;;;;;10.67;7.10;;;;;;;7.62;56.05;95426.53;1760408;81;20982;-73
2022/02/05 10:08:56;;;;;;;9.63;6.50;;;;;;;7.72;56.01;95421.16;1760667;81;21037;-73
2022/02/05 10:11:23;;;;;;;8.60;6.40;;;;;;;7.76;55.02;95422.88;1760221;81;21501;-73
2022/02/05 10:13:50;;;;;;;10.37;7.17;;;;;;;7.92;55.19;95423.58;1760607;81;21034;-73
2022/02/05 10:16:30;;;;;;;10.47;6.30;;;;;;;7.99;54.57;95438.39;1760469;81;21010;-73
2022/02/05 10:18:58;;;;;;;8.83;5.13;;;;;;;7.97;53.93;95418.28;1760534;81;20998;-74
2022/02/05 10:21:30;;;;;;;10.57;7.10;;;;;;;8.05;53.42;95423.00;1760404;81;21010;-74
2022/02/05 10:24:07;;;;;;;9.80;7.23;;;;;;;8.08;53.67;95422.95;1760206;81;21034;-73
2022/02/05 10:26:43;;;;;;;9.17;6.53;;;;;;;8.34;52.84;95423.97;1760210;81;21023;-74
2022/02/05 10:29:14;;;;;;;10.93;7.23;;;;;;;8.66;52.59;95438.02;1760163;81;21172;-74
2022/02/05 10:32:12;;;;;;;9.30;6.43;;;;;;;8.87;51.83;95417.13;1760529;81;21503;-73
2022/02/05 10:35:00;;;;;;;9.60;6.80;;;;;;;8.88;51.19;95427.20;1760597;81;21118;-74
2022/02/05 10:37:27;;;;;;;8.45;6.00;;;;;;;9.42;50.37;95415.36;1759601;81;21106;-74
2022/02/05 10:40:10;;;;;;;7.17;5.22;;;;;;;9.88;49.08;95425.11;1760085;81;21027;-73
2022/02/05 10:43:03;;;;;;;7.50;4.87;;;;;;;10.31;48.16;95437.48;1759972;81;21058;-74
2022/02/05 10:45:15;;;;;;;6.67;5.15;;;;;;;10.45;47.02;95420.05;1755970;81;21062;-74
2022/02/05 10:47:57;;;;;;;5.62;5.03;;;;;;;10.52;46.16;95412.89;1760310;81;21010;-74
2022/02/05 10:50:30;;;;;;;8.58;5.15;;;;;;;10.71;46.06;95423.47;1760592;81;20983;-74
2022/02/05 10:53:04;;;;;;;6.67;4.95;;;;;;;10.90;44.79;95434.47;1760687;81;21002;-74
2022/02/05 10:58:32;;;;;;;6.72;4.70;;;;;;;11.17;44.45;95426.38;1760257;81;21049;-74
2022/02/05 11:06:00;;;;;;;5.25;4.45;;;;;;;10.94;43.94;95395.23;1760171;81;21034;-72
2022/02/05 11:08:27;;;;;;;5.47;3.37;;;;;;;11.32;43.23;95434.84;1760177;81;21034;-73
2022/02/05 11:11:33;;;;;;;7.17;3.47;;;;;;;11.13;43.58;95411.95;1760457;81;21002;-73
2022/02/05 11:21:06;;;;;;;7.10;5.37;;;;;;;9.74;45.99;95437.20;1760208;81;21038;-73
2022/02/05 11:23:34;;;;;;;6.78;5.40;;;;;;;9.85;46.65;95438.34;1760316;81;21006;-73
2022/02/05 11:26:05;;;;;;;4.62;3.58;;;;;;;9.86;47.64;95438.75;1760246;81;21102;-73
2022/02/05 11:28:50;;;;;;;7.50;5.30;;;;;;;10.08;46.42;95429.11;1760350;81;21497;-74
2022/02/05 11:31:32;;;;;;;8.43;4.95;;;;;;;9.77;47.76;95433.64;1760483;81;21026;-73
2022/02/05 11:34:28;;;;;;;7.70;5.10;;;;;;;9.92;47.67;95449.17;1760614;81;21468;-73
2022/02/05 11:37:06;;;;;;;6.30;4.83;;;;;;;9.63;48.35;95444.89;1739808;81;21050;-73
2022/02/05 11:39:53;;;;;;;6.42;4.85;;;;;;;9.44;49.11;95438.59;1760846;81;21037;-73
2022/02/05 11:42:36;;;;;;;8.63;5.15;;;;;;;9.36;49.67;95447.08;1759884;81;21049;-73
2022/02/05 11:45:28;;;;;;;6.33;5.08;;;;;;;9.96;48.91;95461.41;1760640;81;21492;-73
2022/02/05 11:47:57;;;;;;;6.37;4.40;;;;;;;10.37;47.73;95454.95;1760211;81;21038;-73
2022/02/05 11:50:25;;;;;;;8.33;5.40;;;;;;;10.33;47.11;95459.86;1760472;81;21022;-73
2022/02/05 11:52:55;;;;;;;8.33;5.92;;;;;;;9.92;47.76;95454.89;1760447;81;21050;-73
2022/02/05 11:55:32;;;;;;;7.90;5.90;;;;;;;9.44;49.14;95466.70;1759992;81;21019;-73
2022/02/05 11:58:01;;;;;;;8.78;6.00;;;;;;;8.91;50.24;95476.28;1760173;81;21512;-73
2022/02/05 12:00:36;;;;;;;8.65;6.25;;;;;;;8.45;51.82;95502.28;1760495;81;21030;-73
2022/02/05 12:03:35;;;;;;;11.03;6.57;;;;;;;8.08;52.73;95497.84;1760439;81;21031;-73
2022/02/05 12:06:08;;;;;;;8.97;6.10;;;;;;;7.40;55.03;95504.16;1760556;81;21019;-72
2022/02/05 12:08:43;;;;;;;11.83;6.60;;;;;;;7.01;55.98;95519.30;1759853;81;21066;-73
2022/02/05 12:11:30;;;;;;;9.17;6.70;;;;;;;6.53;58.12;95540.06;1760301;81;21082;-73
2022/02/05 12:14:14;;;;;;;12.73;8.20;;;;;;;6.25;58.84;95525.33;1732172;81;21031;-72
2022/02/05 12:17:08;;;;;;;8.30;6.17;;;;;;;5.93;60.00;95533.22;1750960;81;21073;-72
2022/02/05 12:19:59;;;;;;;12.85;8.50;;;;;;;5.56;61.77;95541.09;1760122;81;21655;-73
2022/02/05 12:23:25;;;;;;;12.40;8.27;;;;;;;5.49;61.40;95538.03;1760449;81;21492;-72
2022/02/05 12:26:03;;;;;;;13.60;7.03;;;;;;;5.50;61.63;95541.11;1757732;81;21038;-73
2022/02/05 12:28:34;;;;;;;15.87;10.13;;;;;;;5.50;62.32;95533.70;1760125;81;21082;-73
2022/02/05 12:31:03;;;;;;;14.30;9.60;;;;;;;5.53;61.91;95537.17;1760474;81;21002;-73
2022/02/05 12:33:49;;;;;;;16.47;9.90;;;;;;;5.55;61.97;95528.89;1760258;81;21582;-72
2022/02/05 12:36:36;;;;;;;13.87;9.07;;;;;;;5.62;61.95;95525.41;1760383;81;21620;-72
2022/02/05 12:39:11;;;;;;;11.40;8.13;;;;;;;5.93;62.04;95546.31;1760234;81;21019;-73
2022/02/05 12:41:47;;;;;;;14.10;9.20;;;;;;;6.69;59.28;95533.44;1760393;81;21045;-72
2022/02/05 12:44:13;;;;;;;13.37;9.40;;;;;;;6.74;58.43;95540.43;1760188;81;21057;-73
2022/02/05 12:46:53;;;;;;;11.77;8.50;;;;;;;6.85;58.24;95546.48;1760142;81;21019;-72
2022/02/05 12:49:29;;;;;;;10.33;7.70;;;;;;;7.02;57.45;95545.09;1760286;81;21030;-72
2022/02/05 12:51:53;;;;;;;9.57;7.30;;;;;;;7.06;57.61;95541.58;1759803;81;21002;-73
2022/02/05 12:54:25;;;;;;;12.27;8.30;;;;;;;6.87;57.29;95539.48;1759925;81;21050;-72
2022/02/05 12:56:54;;;;;;;12.10;8.07;;;;;;;6.64;57.83;95543.08;1760457;81;21061;-72
2022/02/05 12:59:27;;;;;;;9.13;7.10;;;;;;;6.62;57.90;95545.28;1760233;81;21023;-72
2022/02/05 13:02:09;;;;;;;9.58;6.97;;;;;;;6.56;57.11;95544.01;1760208;81;21018;-72
2022/02/05 13:04:39;;;;;;;9.98;7.55;;;;;;;6.38;58.09;95550.19;1736633;81;21097;-72
2022/02/05 13:07:23;;;;;;;10.73;7.87;;;;;;;6.47;58.55;95553.62;1760354;81;21002;-73
2022/02/05 13:09:58;;;;;;;11.77;8.73;;;;;;;6.57;58.71;95549.22;1760437;81;21073;-72
2022/02/05 13:12:32;;;;;;;11.77;9.33;;;;;;;6.78;58.25;95552.22;1760234;81;21057;-73
2022/02/05 13:15:10;;;;;;;12.10;8.70;;;;;;;7.46;57.71;95548.75;1760446;81;21113;-72
2022/02/05 13:17:53;;;;;;;12.35;8.98;;;;;;;8.06;56.50;95539.47;1758579;81;21010;-73
2022/02/05 13:25:44;;;;;;;18.73;10.68;;;;;;;10.29;49.69;95534.22;1753701;81;21501;-73
2022/02/05 13:28:14;;;;;;;15.78;11.70;;;;;;;10.28;49.32;95529.86;1750177;82;21053;-73
2022/02/05 13:36:05;;;;;;;11.25;6.67;;;;;;;10.14;47.88;95526.56;1751065;81;21054;-72
2022/02/05 13:38:42;;;;;;;10.53;8.05;;;;;;;9.08;49.64;95543.58;1750771;81;21082;-72
2022/02/05 13:41:08;;;;;;;9.65;7.72;;;;;;;8.32;51.65;95547.98;1749407;82;21556;-72
2022/02/05 13:43:43;;;;;;;9.68;7.60;;;;;;;8.02;53.71;95534.70;1750907;82;21027;-72
2022/02/05 13:46:13;;;;;;;8.88;6.03;;;;;;;8.76;52.67;95532.60;1751094;81;21517;-72
2022/02/05 13:48:41;;;;;;;9.98;7.67;;;;;;;8.63;52.44;95533.20;1750600;81;21078;-72
2022/02/05 13:51:09;;;;;;;9.10;7.70;;;;;;;8.99;51.24;95543.69;1751274;81;20991;-73
2022/02/05 13:53:56;;;;;;;8.67;6.80;;;;;;;9.28;51.53;95540.67;1750852;82;20999;-72
2022/02/05 13:56:24;;;;;;;9.35;6.75;;;;;;;9.15;50.33;95535.16;1750997;82;21497;-72
2022/02/05 13:58:51;;;;;;;8.93;7.37;;;;;;;8.97;50.54;95548.55;1750741;82;21030;-72
2022/02/05 14:01:36;;;;;;;8.87;6.97;;;;;;;8.62;51.45;95550.75;1750817;82;21031;-72
2022/02/05 14:04:19;;;;;;;11.40;8.70;;;;;;;8.42;51.98;95553.59;1741907;82;21019;-73
2022/02/05 14:06:59;;;;;;;;;;;;;;;8.11;52.51;95565.27;1753706;81;21512;-72
2022/02/05 14:09:30;;;;;;;8.10;5.37;;;;;;;7.65;53.44;95578.35;1751308;82;20099;-73
2022/02/05 14:11:57;;;;;;;9.73;7.43;;;;;;;7.17;54.03;95577.80;1750892;81;21090;-72
2022/02/05 14:14:33;;;;;;;8.97;6.60;;;;;;;6.67;55.23;95580.22;1751088;82;21022;-72
2022/02/05 14:17:01;;;;;;;10.33;7.10;;;;;;;6.34;56.18;95587.30;1751060;82;21026;-72
2022/02/05 14:19:30;;;;;;;11.57;7.77;;;;;;;5.98;57.59;95581.70;1751230;82;21437;-72